createdAt,value
2023-01-18T00:01:19.540Z,99608.59
2023-01-18T00:03:47.335Z,99601.06
2023-01-18T00:06:15.308Z,99615.09
2023-01-18T00:08:42.916Z,99608.44
2023-01-18T00:11:16.222Z,99600.50
2023-01-18T00:13:44.533Z,99612.94
2023-01-18T00:16:14.297Z,99604.75
2023-01-18T00:18:42.317Z,99607.31
2023-01-18T00:21:11.800Z,99610.44
2023-01-18T00:23:40.221Z,99610.13
2023-01-18T00:26:10.101Z,99606.75
2023-01-18T00:28:38.890Z,99606.34
2023-01-18T00:31:15.605Z,99605.94
2023-01-18T00:33:44.891Z,99604.81
2023-01-18T00:36:14.078Z,99600.25
2023-01-18T00:38:42.133Z,99614.63
2023-01-18T00:41:09.771Z,99597.59
2023-01-18T00:43:40.102Z,99598.19
2023-01-18T00:46:09.162Z,99600.41
2023-01-18T00:48:37.273Z,99592.19
2023-01-18T00:51:05.866Z,99588.28
2023-01-18T00:53:33.365Z,99586.69
2023-01-18T00:56:00.997Z,99581.59
2023-01-18T00:58:29.618Z,99588.03
2023-01-18T01:00:57.200Z,99588.84
2023-01-18T01:03:24.783Z,99579.28
2023-01-18T01:06:10.656Z,99583.31
2023-01-18T01:08:38.196Z,99575.03
2023-01-18T01:11:09.377Z,99575.44
2023-01-18T01:13:56.488Z,99587.47
2023-01-18T01:16:43.070Z,99587.56
2023-01-18T01:19:28.788Z,99585.69
2023-01-18T01:22:14.697Z,99573.56
2023-01-18T01:25:00.450Z,99575.16
2023-01-18T01:27:28.531Z,99596.22
2023-01-18T01:29:56.140Z,99593.00
2023-01-18T01:32:23.667Z,99602.31
2023-01-18T01:34:51.258Z,99602.56
2023-01-18T01:37:18.741Z,99597.81
2023-01-18T01:39:46.238Z,99606.31
2023-01-18T01:42:13.915Z,99608.16
2023-01-18T01:44:45.672Z,99604.22
2023-01-18T01:47:34.987Z,99613.69
2023-01-18T01:50:09.711Z,99616.53
2023-01-18T01:52:40.297Z,99616.78
2023-01-18T01:55:25.354Z,99614.56
2023-01-18T01:58:07.936Z,99619.81
2023-01-18T02:00:35.802Z,99610.22
2023-01-18T02:03:09.634Z,99596.19
2023-01-18T02:05:42.984Z,99613.66
2023-01-18T02:08:13.612Z,99613.66
2023-01-18T02:10:41.330Z,99608.03
2023-01-18T02:13:11.416Z,99611.81
2023-01-18T02:16:07.076Z,99599.94
2023-01-18T02:18:56.379Z,99601.47
2023-01-18T02:21:31.033Z,99597.94
2023-01-18T02:24:19.982Z,99605.94
2023-01-18T02:27:00.459Z,99606.19
2023-01-18T02:29:53.769Z,99603.84
2023-01-18T02:32:53.873Z,99607.56
2023-01-18T02:35:47.545Z,99614.50
2023-01-18T02:38:28.776Z,99605.44
2023-01-18T02:41:22.436Z,99615.38
2023-01-18T02:44:12.196Z,99606.50
2023-01-18T02:46:40.669Z,99614.06
2023-01-18T02:49:11.778Z,99609.09
2023-01-18T02:51:39.823Z,99607.13
2023-01-18T02:54:10.127Z,99616.19
2023-01-18T02:56:50.022Z,99612.28
2023-01-18T02:59:26.615Z,99614.66
2023-01-18T03:02:09.892Z,99613.28
2023-01-18T03:04:54.551Z,99615.94
2023-01-18T03:07:32.934Z,99611.94
2023-01-18T03:10:04.208Z,99609.28
2023-01-18T03:13:00.503Z,99615.50
2023-01-18T03:15:38.479Z,99614.06
2023-01-18T03:18:28.304Z,99624.41
2023-01-18T03:20:57.476Z,99612.16
2023-01-18T03:23:42.283Z,99619.47
2023-01-18T03:26:16.821Z,99618.59
2023-01-18T03:29:05.628Z,99614.81
2023-01-18T03:32:00.687Z,99612.16
2023-01-18T03:34:44.808Z,99615.50
2023-01-18T03:37:17.095Z,99616.19
2023-01-18T03:39:51.930Z,99613.47
2023-01-18T03:42:28.249Z,99622.88
2023-01-18T03:45:11.287Z,99621.50
2023-01-18T03:47:39.331Z,99615.06
2023-01-18T03:50:07.152Z,99625.63
2023-01-18T03:52:47.084Z,99621.00
2023-01-18T03:55:21.375Z,99623.53
2023-01-18T03:58:07.632Z,99633.16
2023-01-18T04:00:35.260Z,99633.31
2023-01-18T04:03:02.870Z,99630.91
2023-01-18T04:05:30.869Z,99632.53
2023-01-18T04:07:58.545Z,99630.19
2023-01-18T04:10:26.989Z,99636.63
2023-01-18T04:12:54.735Z,99637.97
2023-01-18T04:15:22.232Z,99645.22
2023-01-18T04:17:53.416Z,99641.97
2023-01-18T04:20:20.978Z,99647.38
2023-01-18T04:22:55.114Z,99640.81
2023-01-18T04:25:22.805Z,99653.41
2023-01-18T04:27:50.261Z,99652.28
2023-01-18T04:30:17.966Z,99651.84
2023-01-18T04:32:46.541Z,99653.38
2023-01-18T04:35:14.180Z,99659.97
2023-01-18T04:37:41.967Z,99658.59
2023-01-18T04:40:10.339Z,99653.94
2023-01-18T04:42:37.791Z,99659.22
2023-01-18T04:45:05.920Z,99661.50
2023-01-18T04:47:33.388Z,99658.94
2023-01-18T04:50:01.336Z,99660.06
2023-01-18T04:52:32.487Z,99656.34
2023-01-18T04:55:00.055Z,99654.66
2023-01-18T04:57:27.626Z,99652.41
2023-01-18T04:59:55.155Z,99657.53
2023-01-18T05:02:22.681Z,99670.63
2023-01-18T05:04:50.135Z,99667.66
2023-01-18T05:07:17.667Z,99656.19
2023-01-18T05:09:45.210Z,99660.66
2023-01-18T05:12:12.857Z,99667.41
2023-01-18T05:14:40.321Z,99669.53
2023-01-18T05:17:07.814Z,99667.94
2023-01-18T05:19:35.363Z,99670.72
2023-01-18T05:22:02.903Z,99663.81
2023-01-18T05:24:30.525Z,99663.19
2023-01-18T05:26:58.070Z,99673.47
2023-01-18T05:29:25.721Z,99663.72
2023-01-18T05:31:53.533Z,99675.31
2023-01-18T05:34:21.050Z,99674.53
2023-01-18T05:36:49.026Z,99681.25
2023-01-18T05:39:16.565Z,99694.72
2023-01-18T05:41:44.029Z,99682.06
2023-01-18T05:44:11.604Z,99687.06
2023-01-18T05:46:39.067Z,99688.06
2023-01-18T05:49:06.535Z,99676.94
2023-01-18T05:51:34.196Z,99679.31
2023-01-18T05:54:01.823Z,99680.03
2023-01-18T05:56:29.417Z,99674.94
2023-01-18T05:58:57.122Z,99672.03
2023-01-18T06:01:24.689Z,99660.94
2023-01-18T06:03:52.224Z,99673.69
2023-01-18T06:06:19.794Z,99672.28
2023-01-18T06:08:47.221Z,99669.41
2023-01-18T06:11:14.790Z,99673.06
2023-01-18T06:13:42.343Z,99672.16
2023-01-18T06:16:09.989Z,99678.00
2023-01-18T06:18:39.132Z,99673.78
2023-01-18T06:21:08.238Z,99697.16
2023-01-18T06:26:17.063Z,99688.56
2023-01-18T06:28:44.588Z,99684.63
2023-01-18T06:31:14.770Z,99682.63
2023-01-18T06:33:42.695Z,99692.50
2023-01-18T06:36:10.693Z,99676.31
2023-01-18T06:38:38.328Z,99688.31
2023-01-18T06:41:06.016Z,99693.06
2023-01-18T06:43:33.738Z,99693.38
2023-01-18T06:46:01.850Z,99693.97
2023-01-18T06:48:33.954Z,99705.16
2023-01-18T06:51:04.258Z,99706.41
2023-01-18T06:53:31.710Z,99693.78
2023-01-18T06:56:02.248Z,99694.72
2023-01-18T06:58:33.444Z,99688.63
2023-01-18T07:01:01.585Z,99694.13
2023-01-18T07:03:30.709Z,99712.25
2023-01-18T07:06:00.735Z,99707.19
2023-01-18T07:08:31.666Z,99714.72
2023-01-18T07:11:03.819Z,99715.22
2023-01-18T07:13:31.411Z,99709.09
2023-01-18T07:16:02.428Z,99709.41
2023-01-18T07:18:30.987Z,99710.50
2023-01-18T07:21:04.364Z,99695.84
2023-01-18T07:23:32.444Z,99688.69
2023-01-18T07:26:08.293Z,99691.22
2023-01-18T07:28:36.833Z,99690.47
2023-01-18T07:31:10.076Z,99693.75
2023-01-18T07:33:41.091Z,99670.44
2023-01-18T07:36:13.522Z,99658.13
2023-01-18T07:38:47.316Z,99678.75
2023-01-18T07:44:05.726Z,99689.50
2023-01-18T07:46:36.767Z,99698.16
2023-01-18T07:51:47.706Z,99690.94
2023-01-18T07:54:18.666Z,99694.34
2023-01-18T07:59:32.748Z,99707.69
2023-01-18T08:02:14.605Z,99711.63
2023-01-18T08:04:53.039Z,99690.34
2023-01-18T08:07:21.931Z,99702.72
2023-01-18T08:09:50.915Z,99695.91
2023-01-18T08:12:19.311Z,99681.59
2023-01-18T08:14:47.525Z,99691.72
2023-01-18T08:17:17.419Z,99688.47
2023-01-18T08:19:48.083Z,99677.88
2023-01-18T08:22:16.178Z,99700.47
2023-01-18T08:24:44.817Z,99692.00
2023-01-18T08:27:15.031Z,99674.03
2023-01-18T08:29:42.835Z,99688.06
2023-01-18T08:32:10.691Z,99694.81
2023-01-18T08:34:39.428Z,99689.00
2023-01-18T08:37:12.100Z,99684.88
2023-01-18T08:39:39.980Z,99674.38
2023-01-18T08:42:07.821Z,99699.19
2023-01-18T08:44:35.620Z,99698.44
2023-01-18T08:47:03.672Z,99691.25
2023-01-18T08:49:33.003Z,99697.41
2023-01-18T08:52:00.664Z,99686.97
2023-01-18T08:54:28.365Z,99689.25
2023-01-18T08:56:56.047Z,99701.19
2023-01-18T08:59:24.350Z,99696.72
2023-01-18T09:01:51.936Z,99682.72
2023-01-18T09:04:20.148Z,99701.75
2023-01-18T09:06:52.369Z,99682.63
2023-01-18T09:09:20.106Z,99688.50
2023-01-18T09:11:51.617Z,99698.56
2023-01-18T09:14:19.830Z,99683.22
2023-01-18T09:16:47.320Z,99708.03
2023-01-18T09:19:15.148Z,99706.81
2023-01-18T09:21:42.777Z,99706.72
2023-01-18T09:24:10.755Z,99709.41
2023-01-18T09:26:38.370Z,99704.31
2023-01-18T09:29:06.197Z,99694.56
2023-01-18T09:31:34.011Z,99697.53
2023-01-18T09:34:17.970Z,99675.63
2023-01-18T09:36:47.148Z,99705.69
2023-01-18T09:39:14.903Z,99713.03
2023-01-18T09:41:45.293Z,99717.13
2023-01-18T09:44:30.288Z,99711.06
2023-01-18T09:47:06.508Z,99718.53
2023-01-18T09:49:46.963Z,99708.16
2023-01-18T09:52:33.839Z,99711.69
2023-01-18T09:55:23.048Z,99711.22
2023-01-18T09:58:08.731Z,99703.97
2023-01-18T10:00:40.564Z,99722.69
2023-01-18T10:03:23.967Z,99704.25
2023-01-18T10:06:09.078Z,99707.03
2023-01-18T10:09:02.448Z,99715.56
2023-01-18T10:12:03.803Z,99720.53
2023-01-18T10:15:00.757Z,99721.16
2023-01-18T10:17:36.984Z,99710.59
2023-01-18T10:20:17.232Z,99710.66
2023-01-18T10:23:01.327Z,99718.47
2023-01-18T10:25:55.653Z,99717.19
2023-01-18T10:28:41.291Z,99713.28
2023-01-18T10:31:36.412Z,99724.06
2023-01-18T10:34:13.269Z,99717.69
2023-01-18T10:36:46.552Z,99730.53
2023-01-18T10:39:38.804Z,99726.75
2023-01-18T10:42:19.384Z,99734.66
2023-01-18T10:44:48.229Z,99720.72
2023-01-18T10:47:20.268Z,99725.19
2023-01-18T10:49:50.960Z,99728.03
2023-01-18T10:52:23.763Z,99729.09
2023-01-18T10:54:56.125Z,99738.84
2023-01-18T10:57:28.974Z,99736.16
2023-01-18T10:59:57.325Z,99731.72
2023-01-18T11:02:30.430Z,99730.19
2023-01-18T11:05:03.312Z,99726.84
2023-01-18T11:07:31.463Z,99717.59
2023-01-18T11:10:02.712Z,99741.72
2023-01-18T11:12:42.879Z,99738.44
2023-01-18T11:15:16.469Z,99736.59
2023-01-18T11:18:03.476Z,99736.06
2023-01-18T11:20:51.312Z,99733.16
2023-01-18T11:23:31.083Z,99732.00
2023-01-18T11:26:13.282Z,99729.06
2023-01-18T11:28:53.090Z,99721.09
2023-01-18T11:31:25.972Z,99735.91
2023-01-18T11:33:59.858Z,99745.59
2023-01-18T11:36:41.138Z,99740.63
2023-01-18T11:39:26.759Z,99743.72
2023-01-18T11:42:26.990Z,99743.25
2023-01-18T11:45:14.650Z,99743.03
2023-01-18T11:47:51.338Z,99735.34
2023-01-18T11:50:35.487Z,99720.97
2023-01-18T11:53:26.999Z,99741.81
2023-01-18T11:56:12.982Z,99718.97
2023-01-18T11:58:42.301Z,99692.09
2023-01-18T12:01:10.276Z,99739.88
2023-01-18T12:04:04.454Z,99740.09
2023-01-18T12:07:09.814Z,99743.31
2023-01-18T12:09:54.736Z,99744.78
2023-01-18T12:12:59.585Z,99754.88
2023-01-18T12:15:52.347Z,99757.06
2023-01-18T12:18:35.163Z,99755.19
2023-01-18T12:21:11.974Z,99739.78
2023-01-18T12:23:55.185Z,99749.38
2023-01-18T12:26:37.795Z,99747.28
2023-01-18T12:29:19.692Z,99744.34
2023-01-18T12:32:31.979Z,99748.63
2023-01-18T12:35:24.007Z,99749.44
2023-01-18T12:37:55.635Z,99748.34
2023-01-18T12:40:32.897Z,99741.97
2023-01-18T12:43:00.384Z,99748.66
2023-01-18T12:45:43.101Z,99740.13
2023-01-18T12:48:22.262Z,99752.41
2023-01-18T12:50:51.573Z,99747.88
2023-01-18T12:53:25.432Z,99748.66
2023-01-18T12:55:54.973Z,99748.69
2023-01-18T12:58:26.414Z,99759.06
2023-01-18T13:01:05.400Z,99761.47
2023-01-18T13:03:41.836Z,99754.00
2023-01-18T13:06:10.252Z,99744.06
2023-01-18T13:08:50.139Z,99760.91
2023-01-18T13:11:32.338Z,99745.69
2023-01-18T13:14:18.032Z,99757.38
2023-01-18T13:17:03.946Z,99752.88
2023-01-18T13:19:55.260Z,99770.75
2023-01-18T13:22:26.544Z,99758.69
2023-01-18T13:25:31.775Z,99761.66
2023-01-18T13:28:14.356Z,99757.88
2023-01-18T13:30:56.886Z,99765.31
2023-01-18T13:33:27.333Z,99755.38
2023-01-18T13:35:58.198Z,99757.25
2023-01-18T13:38:40.703Z,99763.09
2023-01-18T13:41:12.688Z,99758.78
2023-01-18T13:43:46.415Z,99750.03
2023-01-18T13:46:23.932Z,99755.06
2023-01-18T13:49:00.419Z,99749.72
2023-01-18T13:51:37.172Z,99750.78
2023-01-18T13:54:04.903Z,99745.06
2023-01-18T13:56:37.850Z,99739.94
2023-01-18T13:59:19.099Z,99752.88
2023-01-18T14:01:49.185Z,99755.44
2023-01-18T14:04:46.477Z,99754.69
2023-01-18T14:07:23.838Z,99760.75
2023-01-18T14:09:52.044Z,99758.75
2023-01-18T14:13:04.636Z,99762.81
2023-01-18T14:15:44.440Z,99758.78
2023-01-18T14:18:30.516Z,99747.03
2023-01-18T14:21:24.227Z,99744.59
2023-01-18T14:24:00.897Z,99749.28
2023-01-18T14:26:35.762Z,99750.66
2023-01-18T14:29:08.509Z,99738.66
2023-01-18T14:31:42.909Z,99735.66
2023-01-18T14:34:36.609Z,99741.63
2023-01-18T14:37:23.596Z,99749.03
2023-01-18T14:40:17.107Z,99751.22
2023-01-18T14:43:15.164Z,99747.66
2023-01-18T14:45:54.557Z,99739.16
2023-01-18T14:48:24.682Z,99739.56
2023-01-18T14:50:54.610Z,99740.34
2023-01-18T14:53:25.772Z,99752.91
2023-01-18T14:56:19.824Z,99755.84
2023-01-18T14:59:03.512Z,99753.50
2023-01-18T15:01:32.631Z,99752.28
2023-01-18T15:04:02.628Z,99751.47
2023-01-18T15:06:47.342Z,99739.81
2023-01-18T15:09:15.904Z,99739.44
2023-01-18T15:11:45.539Z,99741.84
2023-01-18T15:14:24.002Z,99734.97
2023-01-18T15:16:55.919Z,99742.09
2023-01-18T15:19:28.252Z,99749.75
2023-01-18T15:22:00.625Z,99736.63
2023-01-18T15:24:31.276Z,99744.88
2023-01-18T15:27:05.453Z,99744.66
2023-01-18T15:29:35.935Z,99737.16
2023-01-18T15:32:41.271Z,99739.69
2023-01-18T15:35:14.767Z,99742.00
2023-01-18T15:37:42.495Z,99742.72
2023-01-18T15:40:13.110Z,99753.59
2023-01-18T15:42:59.378Z,99749.47
2023-01-18T15:45:33.799Z,99763.06
2023-01-18T15:48:08.020Z,99733.47
2023-01-18T15:50:45.515Z,99746.81
2023-01-18T15:53:36.367Z,99739.94
2023-01-18T15:56:09.454Z,99747.91
2023-01-18T15:58:47.569Z,99739.41
2023-01-18T16:01:22.193Z,99740.59
2023-01-18T16:03:54.775Z,99742.19
2023-01-18T16:06:24.968Z,99734.47
2023-01-18T16:09:12.648Z,99694.44
2023-01-18T16:11:49.044Z,99731.31
2023-01-18T16:14:29.684Z,99732.91
2023-01-18T16:17:09.774Z,99729.38
2023-01-18T16:19:41.435Z,99725.53
2023-01-18T16:22:27.208Z,99730.59
2023-01-18T16:24:55.993Z,99732.06
2023-01-18T16:27:26.158Z,99734.50
2023-01-18T16:30:03.361Z,99739.88
2023-01-18T16:32:36.707Z,99728.94
2023-01-18T16:35:20.034Z,99729.81
2023-01-18T16:37:48.939Z,99732.91
2023-01-18T16:40:20.946Z,99733.16
2023-01-18T16:42:59.046Z,99733.81
2023-01-18T16:45:29.538Z,99728.09
2023-01-18T16:47:57.637Z,99727.75
2023-01-18T16:50:31.128Z,99721.16
2023-01-18T16:53:22.667Z,99717.13
2023-01-18T16:56:18.918Z,99708.31
2023-01-18T17:02:11.921Z,99692.94
2023-01-18T17:04:41.776Z,99706.69
2023-01-18T17:07:31.289Z,99728.94
2023-01-18T17:10:00.694Z,99733.75
2023-01-18T17:12:28.434Z,99721.09
2023-01-18T17:14:55.926Z,99727.59
2023-01-18T17:17:23.761Z,99730.91
2023-01-18T17:19:52.340Z,99726.28
2023-01-18T17:22:25.010Z,99723.03
2023-01-18T17:24:54.655Z,99720.03
2023-01-18T17:27:22.259Z,99717.38
2023-01-18T17:29:49.761Z,99710.72
2023-01-18T17:32:19.512Z,99700.84
2023-01-18T17:34:54.438Z,99708.63
2023-01-18T17:37:22.540Z,99718.44
2023-01-18T17:40:10.872Z,99711.03
2023-01-18T17:42:41.684Z,99718.31
2023-01-18T17:45:14.721Z,99680.88
2023-01-18T17:47:50.767Z,99702.50
2023-01-18T17:50:24.944Z,99716.09
2023-01-18T17:52:54.667Z,99705.66
2023-01-18T17:55:27.395Z,99689.09
2023-01-18T17:58:02.926Z,99691.34
2023-01-18T18:00:30.830Z,99693.66
2023-01-18T18:03:00.497Z,99695.16
2023-01-18T18:05:29.088Z,99685.22
2023-01-18T18:07:56.755Z,99690.03
2023-01-18T18:10:24.531Z,99699.97
2023-01-18T18:12:52.411Z,99682.06
2023-01-18T18:15:22.944Z,99697.25
2023-01-18T18:17:50.556Z,99699.97
2023-01-18T18:20:18.462Z,99688.97
2023-01-18T18:22:46.210Z,99699.91
2023-01-18T18:25:14.134Z,99688.13
2023-01-18T18:27:46.084Z,99692.84
2023-01-18T18:30:17.825Z,99702.00
2023-01-18T18:32:45.988Z,99696.88
2023-01-18T18:35:25.118Z,99690.28
2023-01-18T18:37:54.589Z,99693.00
2023-01-18T18:40:22.709Z,99669.97
2023-01-18T18:43:06.912Z,99702.50
2023-01-18T18:45:35.439Z,99678.97
2023-01-18T18:48:11.875Z,99706.75
2023-01-18T18:50:42.792Z,99682.91
2023-01-18T18:53:13.862Z,99693.59
2023-01-18T18:55:49.448Z,99689.75
2023-01-18T18:58:19.617Z,99695.63
2023-01-18T19:00:47.288Z,99647.19
2023-01-18T19:03:14.883Z,99691.91
2023-01-18T19:05:42.854Z,99687.91
2023-01-18T19:08:10.420Z,99681.50
2023-01-18T19:10:39.474Z,99684.06
2023-01-18T19:13:07.741Z,99680.88
2023-01-18T19:15:35.366Z,99677.38
2023-01-18T19:18:03.079Z,99683.53
2023-01-18T19:20:30.907Z,99687.22
2023-01-18T19:22:59.252Z,99682.41
2023-01-18T19:25:27.078Z,99683.94
2023-01-18T19:27:54.931Z,99680.44
2023-01-18T19:30:22.791Z,99680.88
2023-01-18T19:32:51.460Z,99691.72
2023-01-18T19:35:20.972Z,99678.53
2023-01-18T19:37:48.848Z,99671.22
2023-01-18T19:40:17.045Z,99684.34
2023-01-18T19:42:45.245Z,99674.22
2023-01-18T19:45:19.629Z,99675.56
2023-01-18T19:47:55.519Z,99683.75
2023-01-18T19:50:24.156Z,99657.88
2023-01-18T19:52:52.646Z,99672.34
2023-01-18T19:55:21.879Z,99673.56
2023-01-18T19:57:52.587Z,99669.72
2023-01-18T20:00:20.753Z,99670.47
2023-01-18T20:02:48.549Z,99673.16
2023-01-18T20:05:16.170Z,99665.63
2023-01-18T20:07:43.772Z,99670.91
2023-01-18T20:10:11.656Z,99674.16
2023-01-18T20:12:40.633Z,99665.69
2023-01-18T20:15:08.545Z,99660.81
2023-01-18T20:17:36.021Z,99662.47
2023-01-18T20:20:04.525Z,99652.13
2023-01-18T20:22:32.234Z,99648.53
2023-01-18T20:24:59.999Z,99654.72
2023-01-18T20:27:27.805Z,99661.28
2023-01-18T20:29:59.585Z,99651.97
2023-01-18T20:32:27.511Z,99642.81
2023-01-18T20:34:55.166Z,99645.06
2023-01-18T20:37:22.988Z,99643.13
2023-01-18T20:39:50.635Z,99634.63
2023-01-18T20:42:18.618Z,99634.03
2023-01-18T20:44:49.498Z,99626.25
2023-01-18T20:47:17.095Z,99630.75
2023-01-18T20:49:45.673Z,99633.25
2023-01-18T20:52:13.261Z,99635.97
2023-01-18T20:54:40.744Z,99626.50
2023-01-18T20:57:09.775Z,99642.31
2023-01-18T20:59:37.319Z,99637.69
2023-01-18T21:02:05.196Z,99642.25
2023-01-18T21:04:32.791Z,99642.88
2023-01-18T21:07:00.258Z,99638.38
2023-01-18T21:09:27.945Z,99642.00
2023-01-18T21:11:55.397Z,99641.75
2023-01-18T21:14:23.107Z,99641.75
2023-01-18T21:16:50.747Z,99649.72
2023-01-18T21:19:18.261Z,99656.28
2023-01-18T21:21:45.802Z,99646.16
2023-01-18T21:24:13.402Z,99635.44
2023-01-18T21:26:41.012Z,99657.91
2023-01-18T21:29:08.578Z,99645.78
2023-01-18T21:31:36.058Z,99658.50
2023-01-18T21:34:03.891Z,99649.56
2023-01-18T21:36:31.506Z,99658.78
2023-01-18T21:38:59.075Z,99651.81
2023-01-18T21:41:44.776Z,99657.81
2023-01-18T21:44:31.390Z,99661.81
2023-01-18T21:46:59.443Z,99667.31
2023-01-18T21:50:16.032Z,99662.09
2023-01-18T21:52:51.916Z,99663.19
2023-01-18T21:55:20.300Z,99668.59
2023-01-18T21:58:07.725Z,99656.78
2023-01-18T22:00:40.072Z,99656.22
2023-01-18T22:03:07.955Z,99661.28
2023-01-18T22:05:35.767Z,99668.50
2023-01-18T22:08:03.446Z,99672.28
2023-01-18T22:10:31.225Z,99679.44
2023-01-18T22:12:58.692Z,99668.84
2023-01-18T22:15:26.288Z,99650.28
2023-01-18T22:17:53.799Z,99669.81
2023-01-18T22:20:21.262Z,99664.66
2023-01-18T22:22:48.858Z,99668.47
2023-01-18T22:25:16.315Z,99671.13
2023-01-18T22:27:43.736Z,99664.47
2023-01-18T22:30:11.821Z,99682.19
2023-01-18T22:32:39.505Z,99684.00
2023-01-18T22:35:07.492Z,99671.06
2023-01-18T22:37:35.042Z,99667.84
2023-01-18T22:40:02.590Z,99662.63
2023-01-18T22:42:31.866Z,99678.38
2023-01-18T22:45:00.037Z,99670.72
2023-01-18T22:47:27.999Z,99671.38
2023-01-18T22:49:55.506Z,99665.31
2023-01-18T22:52:22.954Z,99664.13
2023-01-18T22:54:50.731Z,99675.97
2023-01-18T22:57:18.253Z,99650.94
2023-01-18T22:59:45.755Z,99661.63
2023-01-18T23:02:13.219Z,99659.56
2023-01-18T23:04:40.635Z,99665.13
2023-01-18T23:07:08.156Z,99663.53
2023-01-18T23:09:35.820Z,99646.16
2023-01-18T23:12:03.523Z,99646.97
2023-01-18T23:14:49.242Z,99656.06
2023-01-18T23:17:35.104Z,99663.69
2023-01-18T23:20:02.584Z,99672.13
2023-01-18T23:22:31.472Z,99655.31
2023-01-18T23:24:58.911Z,99670.25
2023-01-18T23:27:26.431Z,99662.66
2023-01-18T23:29:59.762Z,99662.41
2023-01-18T23:32:30.724Z,99666.34
2023-01-18T23:34:59.395Z,99665.69
2023-01-18T23:37:27.697Z,99663.16
2023-01-18T23:40:13.989Z,99674.75
2023-01-18T23:42:59.961Z,99674.75
2023-01-18T23:45:47.388Z,99679.34
2023-01-18T23:48:35.715Z,99678.41
2023-01-18T23:51:23.092Z,99686.25
2023-01-18T23:54:09.153Z,99673.88
2023-01-18T23:56:36.710Z,99679.75
2023-01-18T23:59:04.286Z,99676.03
